sensor_id;sensor_type;location;lat;lon;timestamp;pressure;altitude;pressure_sealevel;temperature;humidity
6216;BME280;3141;49.234;9.326;2023-06-10T00:00:30;99284.38;;;19.32;65.71
6216;BME280;3141;49.234;9.326;2023-06-10T00:01:13;99275.53;;;19.25;65.89
6216;BME280;3141;49.234;9.326;2023-06-10T00:01:56;99276.97;;;19.27;65.83
6216;BME280;3141;49.234;9.326;2023-06-10T00:02:42;99274.47;;;19.32;65.37
6216;BME280;3141;49.234;9.326;2023-06-10T00:03:26;99271.13;;;19.37;65.14
6216;BME280;3141;49.234;9.326;2023-06-10T00:04:08;99272.97;;;19.36;65.16
6216;BME280;3141;49.234;9.326;2023-06-10T00:04:51;99275.28;;;19.33;65.12
6216;BME280;3141;49.234;9.326;2023-06-10T00:05:35;99279.00;;;19.32;65.16
6216;BME280;3141;49.234;9.326;2023-06-10T00:06:18;99275.66;;;19.36;65.07
6216;BME280;3141;49.234;9.326;2023-06-10T00:07:00;99274.03;;;19.35;64.89
6216;BME280;3141;49.234;9.326;2023-06-10T00:07:43;99275.09;;;19.28;65.31
6216;BME280;3141;49.234;9.326;2023-06-10T00:08:25;99278.22;;;19.25;65.22
6216;BME280;3141;49.234;9.326;2023-06-10T00:09:07;99280.06;;;19.06;66.08
6216;BME280;3141;49.234;9.326;2023-06-10T00:09:54;99282.19;;;18.98;66.43
6216;BME280;3141;49.234;9.326;2023-06-10T00:10:45;99278.75;;;18.91;67.04
6216;BME280;3141;49.234;9.326;2023-06-10T00:11:27;99277.16;;;18.83;67.38
6216;BME280;3141;49.234;9.326;2023-06-10T00:12:10;99272.00;;;18.82;67.45
6216;BME280;3141;49.234;9.326;2023-06-10T00:12:52;99281.66;;;18.83;67.50
6216;BME280;3141;49.234;9.326;2023-06-10T00:13:34;99276.16;;;18.78;67.71
6216;BME280;3141;49.234;9.326;2023-06-10T00:14:18;99274.97;;;18.74;67.55
6216;BME280;3141;49.234;9.326;2023-06-10T00:15:00;99276.59;;;18.75;67.56
6216;BME280;3141;49.234;9.326;2023-06-10T00:15:43;99275.19;;;18.72;67.82
6216;BME280;3141;49.234;9.326;2023-06-10T00:16:25;99277.81;;;18.79;67.47
6216;BME280;3141;49.234;9.326;2023-06-10T00:17:08;99275.91;;;18.86;67.15
6216;BME280;3141;49.234;9.326;2023-06-10T00:17:51;99276.91;;;18.91;66.89
6216;BME280;3141;49.234;9.326;2023-06-10T00:18:37;99280.53;;;18.97;66.41
6216;BME280;3141;49.234;9.326;2023-06-10T00:19:20;99279.28;;;18.99;66.36
6216;BME280;3141;49.234;9.326;2023-06-10T00:20:08;99269.50;;;18.87;67.27
6216;BME280;3141;49.234;9.326;2023-06-10T00:20:53;99272.47;;;18.79;67.57
6216;BME280;3141;49.234;9.326;2023-06-10T00:21:37;99271.84;;;18.77;67.72
6216;BME280;3141;49.234;9.326;2023-06-10T00:22:22;99280.72;;;18.71;67.98
6216;BME280;3141;49.234;9.326;2023-06-10T00:23:04;99279.94;;;18.70;68.26
6216;BME280;3141;49.234;9.326;2023-06-10T00:23:48;99275.22;;;18.66;68.13
6216;BME280;3141;49.234;9.326;2023-06-10T00:24:31;99277.50;;;18.62;68.22
6216;BME280;3141;49.234;9.326;2023-06-10T00:25:14;99274.03;;;18.62;68.36
6216;BME280;3141;49.234;9.326;2023-06-10T00:25:58;99280.56;;;18.66;68.11
6216;BME280;3141;49.234;9.326;2023-06-10T00:26:41;99284.63;;;18.75;67.72
6216;BME280;3141;49.234;9.326;2023-06-10T00:27:24;99276.38;;;18.76;67.37
6216;BME280;3141;49.234;9.326;2023-06-10T00:28:08;99281.31;;;18.79;67.30
6216;BME280;3141;49.234;9.326;2023-06-10T00:28:50;99281.09;;;18.81;67.11
6216;BME280;3141;49.234;9.326;2023-06-10T00:29:34;99280.31;;;18.74;67.32
6216;BME280;3141;49.234;9.326;2023-06-10T00:30:17;99282.00;;;18.68;67.77
6216;BME280;3141;49.234;9.326;2023-06-10T00:30:59;99281.22;;;18.61;68.23
6216;BME280;3141;49.234;9.326;2023-06-10T00:31:43;99276.72;;;18.62;68.00
6216;BME280;3141;49.234;9.326;2023-06-10T00:32:25;99275.66;;;18.63;68.12
6216;BME280;3141;49.234;9.326;2023-06-10T00:33:07;99275.81;;;18.68;67.98
6216;BME280;3141;49.234;9.326;2023-06-10T00:33:50;99273.59;;;18.65;67.97
6216;BME280;3141;49.234;9.326;2023-06-10T00:34:32;99276.25;;;18.65;68.19
6216;BME280;3141;49.234;9.326;2023-06-10T00:35:14;99282.41;;;18.72;67.72
6216;BME280;3141;49.234;9.326;2023-06-10T00:35:57;99278.50;;;18.68;68.12
6216;BME280;3141;49.234;9.326;2023-06-10T00:36:39;99278.72;;;18.66;68.21
6216;BME280;3141;49.234;9.326;2023-06-10T00:37:22;99278.28;;;18.69;67.98
6216;BME280;3141;49.234;9.326;2023-06-10T00:38:04;99275.81;;;18.68;67.92
6216;BME280;3141;49.234;9.326;2023-06-10T00:38:46;99277.50;;;18.62;68.33
6216;BME280;3141;49.234;9.326;2023-06-10T00:39:29;99276.72;;;18.62;68.36
6216;BME280;3141;49.234;9.326;2023-06-10T00:40:12;99270.91;;;18.65;68.14
6216;BME280;3141;49.234;9.326;2023-06-10T00:40:54;99279.59;;;18.60;68.55
6216;BME280;3141;49.234;9.326;2023-06-10T00:41:36;99276.72;;;18.62;68.45
6216;BME280;3141;49.234;9.326;2023-06-10T00:42:19;99280.38;;;18.67;68.00
6216;BME280;3141;49.234;9.326;2023-06-10T00:43:01;99273.81;;;18.63;68.60
6216;BME280;3141;49.234;9.326;2023-06-10T00:43:44;99271.34;;;18.62;68.54
6216;BME280;3141;49.234;9.326;2023-06-10T00:44:26;99276.72;;;18.62;68.21
6216;BME280;3141;49.234;9.326;2023-06-10T00:45:09;99274.81;;;18.62;68.49
6216;BME280;3141;49.234;9.326;2023-06-10T00:45:51;99281.00;;;18.63;68.75
6216;BME280;3141;49.234;9.326;2023-06-10T00:46:34;99274.19;;;18.67;68.38
6216;BME280;3141;49.234;9.326;2023-06-10T00:47:17;99271.97;;;18.64;68.12
6216;BME280;3141;49.234;9.326;2023-06-10T00:48:01;99275.59;;;18.69;68.15
6216;BME280;3141;49.234;9.326;2023-06-10T00:48:44;99283.16;;;18.79;67.61
6216;BME280;3141;49.234;9.326;2023-06-10T00:49:27;99274.69;;;18.82;66.89
6216;BME280;3141;49.234;9.326;2023-06-10T00:50:10;99281.66;;;18.83;67.09
6216;BME280;3141;49.234;9.326;2023-06-10T00:50:53;99278.19;;;18.82;67.10
6216;BME280;3141;49.234;9.326;2023-06-10T00:51:35;99275.91;;;18.86;66.85
6216;BME280;3141;49.234;9.326;2023-06-10T00:52:19;99279.38;;;18.86;66.52
6216;BME280;3141;49.234;9.326;2023-06-10T00:53:05;99284.19;;;18.78;66.84
6216;BME280;3141;49.234;9.326;2023-06-10T00:53:48;99275.78;;;18.74;67.05
6216;BME280;3141;49.234;9.326;2023-06-10T00:54:30;99280.97;;;18.69;67.26
6216;BME280;3141;49.234;9.326;2023-06-10T00:55:13;99280.38;;;18.67;67.48
6216;BME280;3141;49.234;9.326;2023-06-10T00:55:56;99281.41;;;18.66;67.36
6216;BME280;3141;49.234;9.326;2023-06-10T00:56:39;99283.53;;;18.58;67.65
6216;BME280;3141;49.234;9.326;2023-06-10T00:57:21;99284.97;;;18.54;68.07
6216;BME280;3141;49.234;9.326;2023-06-10T00:58:04;99282.13;;;18.49;68.40
6216;BME280;3141;49.234;9.326;2023-06-10T00:58:47;99285.84;;;18.48;68.34
6216;BME280;3141;49.234;9.326;2023-06-10T00:59:30;99281.75;;;18.45;68.65
6216;BME280;3141;49.234;9.326;2023-06-10T01:00:14;99278.28;;;18.45;68.59
6216;BME280;3141;49.234;9.326;2023-06-10T01:00:57;99280.13;;;18.44;68.57
6216;BME280;3141;49.234;9.326;2023-06-10T01:01:39;99289.56;;;18.47;68.17
6216;BME280;3141;49.234;9.326;2023-06-10T01:02:23;99274.75;;;18.44;68.35
6216;BME280;3141;49.234;9.326;2023-06-10T01:03:05;99281.34;;;18.41;68.04
6216;BME280;3141;49.234;9.326;2023-06-10T01:03:49;99280.53;;;18.34;68.37
6216;BME280;3141;49.234;9.326;2023-06-10T01:04:32;99287.56;;;18.35;68.15
6216;BME280;3141;49.234;9.326;2023-06-10T01:05:14;99276.66;;;18.30;68.25
6216;BME280;3141;49.234;9.326;2023-06-10T01:06:21;99273.78;;;18.32;68.33
6216;BME280;3141;49.234;9.326;2023-06-10T01:08:09;99291.44;;;18.39;67.77
6216;BME280;3141;49.234;9.326;2023-06-10T01:10:08;99286.69;;;18.48;67.20
6216;BME280;3141;49.234;9.326;2023-06-10T01:10:57;99279.69;;;18.47;67.25
6216;BME280;3141;49.234;9.326;2023-06-10T01:11:53;99285.25;;;18.46;67.23
6216;BME280;3141;49.234;9.326;2023-06-10T01:12:45;99285.06;;;18.40;67.60
6216;BME280;3141;49.234;9.326;2023-06-10T01:13:30;99280.34;;;18.36;67.92
6216;BME280;3141;49.234;9.326;2023-06-10T01:14:15;99287.56;;;18.35;67.89
6216;BME280;3141;49.234;9.326;2023-06-10T01:14:59;99286.50;;;18.36;67.50
6216;BME280;3141;49.234;9.326;2023-06-10T01:15:42;99283.81;;;18.36;67.71
6216;BME280;3141;49.234;9.326;2023-06-10T01:16:25;99277.25;;;18.39;67.44
6216;BME280;3141;49.234;9.326;2023-06-10T01:17:08;99286.28;;;18.38;67.79
6216;BME280;3141;49.234;9.326;2023-06-10T01:18:40;99287.09;;;18.38;67.49
6216;BME280;3141;49.234;9.326;2023-06-10T01:19:22;99288.38;;;18.42;67.08
6216;BME280;3141;49.234;9.326;2023-06-10T01:20:06;99294.50;;;18.43;67.18
6216;BME280;3141;49.234;9.326;2023-06-10T01:20:54;99291.63;;;18.38;67.55
6216;BME280;3141;49.234;9.326;2023-06-10T01:21:37;99290.66;;;18.32;67.94
6216;BME280;3141;49.234;9.326;2023-06-10T01:22:23;99291.84;;;18.36;67.63
6216;BME280;3141;49.234;9.326;2023-06-10T01:23:06;99290.66;;;18.32;68.64
6216;BME280;3141;49.234;9.326;2023-06-10T01:23:49;99286.75;;;18.28;69.28
6216;BME280;3141;49.234;9.326;2023-06-10T01:24:31;99293.34;;;18.32;69.36
6216;BME280;3141;49.234;9.326;2023-06-10T01:25:17;99296.41;;;18.36;69.32
6216;BME280;3141;49.234;9.326;2023-06-10T01:26:02;99291.50;;;18.26;70.88
6216;BME280;3141;49.234;9.326;2023-06-10T01:26:49;99296.84;;;18.26;70.97
6216;BME280;3141;49.234;9.326;2023-06-10T01:27:35;99297.91;;;18.19;71.66
6216;BME280;3141;49.234;9.326;2023-06-10T01:28:31;99296.53;;;18.10;72.58
6216;BME280;3141;49.234;9.326;2023-06-10T01:29:21;99297.16;;;18.12;72.65
6216;BME280;3141;49.234;9.326;2023-06-10T01:30:11;99300.44;;;18.07;72.79
6216;BME280;3141;49.234;9.326;2023-06-10T01:31:16;99308.50;;;18.01;73.22
6216;BME280;3141;49.234;9.326;2023-06-10T01:32:58;99305.44;;;17.97;74.03
6216;BME280;3141;49.234;9.326;2023-06-10T01:33:45;99301.53;;;17.93;73.94
6216;BME280;3141;49.234;9.326;2023-06-10T01:34:31;99305.03;;;17.94;74.43
6216;BME280;3141;49.234;9.326;2023-06-10T01:35:14;99305.88;;;17.94;74.41
6216;BME280;3141;49.234;9.326;2023-06-10T01:35:58;99302.31;;;18.00;73.90
6216;BME280;3141;49.234;9.326;2023-06-10T01:36:41;99310.13;;;18.02;73.83
6216;BME280;3141;49.234;9.326;2023-06-10T01:37:27;99305.41;;;18.04;73.91
6216;BME280;3141;49.234;9.326;2023-06-10T01:38:10;99315.47;;;18.02;74.02
6216;BME280;3141;49.234;9.326;2023-06-10T01:38:55;99312.81;;;18.02;73.96
6216;BME280;3141;49.234;9.326;2023-06-10T01:39:39;99312.81;;;18.08;73.88
6216;BME280;3141;49.234;9.326;2023-06-10T01:40:23;99312.81;;;18.08;73.29
6216;BME280;3141;49.234;9.326;2023-06-10T01:41:06;99312.81;;;18.08;74.05
6216;BME280;3141;49.234;9.326;2023-06-10T01:41:49;99310.09;;;18.15;73.18
6216;BME280;3141;49.234;9.326;2023-06-10T01:42:33;99310.28;;;18.20;72.67
6216;BME280;3141;49.234;9.326;2023-06-10T01:43:15;99304.91;;;18.20;73.34
6216;BME280;3141;49.234;9.326;2023-06-10T01:43:57;99313.16;;;18.18;73.12
6216;BME280;3141;49.234;9.326;2023-06-10T01:44:40;99307.38;;;18.21;72.48
6216;BME280;3141;49.234;9.326;2023-06-10T01:45:22;99310.50;;;18.18;72.75
6216;BME280;3141;49.234;9.326;2023-06-10T01:46:05;99312.34;;;18.18;72.79
6216;BME280;3141;49.234;9.326;2023-06-10T01:46:48;99312.72;;;18.21;72.63
6216;BME280;3141;49.234;9.326;2023-06-10T01:47:30;99310.22;;;18.26;72.57
6216;BME280;3141;49.234;9.326;2023-06-10T01:48:13;99308.59;;;18.25;72.45
6216;BME280;3141;49.234;9.326;2023-06-10T01:48:56;99312.69;;;18.28;71.79
6216;BME280;3141;49.234;9.326;2023-06-10T01:49:38;99308.00;;;18.23;71.80
6216;BME280;3141;49.234;9.326;2023-06-10T01:50:20;99312.13;;;18.19;72.01
6216;BME280;3141;49.234;9.326;2023-06-10T01:51:03;99307.59;;;18.20;71.63
6216;BME280;3141;49.234;9.326;2023-06-10T01:51:46;99307.16;;;18.23;71.36
6216;BME280;3141;49.234;9.326;2023-06-10T01:52:28;99309.78;;;18.29;71.10
6216;BME280;3141;49.234;9.326;2023-06-10T01:53:10;99310.19;;;18.33;70.47
6216;BME280;3141;49.234;9.326;2023-06-10T01:53:53;99306.50;;;18.27;70.48
6216;BME280;3141;49.234;9.326;2023-06-10T01:54:35;99302.84;;;18.22;70.79
6216;BME280;3141;49.234;9.326;2023-06-10T01:55:18;99311.50;;;18.17;71.08
6216;BME280;3141;49.234;9.326;2023-06-10T01:56:00;99315.22;;;18.16;71.10
6216;BME280;3141;49.234;9.326;2023-06-10T01:56:42;99315.25;;;18.10;71.66
6216;BME280;3141;49.234;9.326;2023-06-10T01:57:25;99320.84;;;18.08;71.85
6216;BME280;3141;49.234;9.326;2023-06-10T01:58:07;99313.22;;;18.05;71.82
6216;BME280;3141;49.234;9.326;2023-06-10T01:58:49;99311.38;;;18.06;71.56
6216;BME280;3141;49.234;9.326;2023-06-10T01:59:32;99314.00;;;18.12;71.02
6216;BME280;3141;49.234;9.326;2023-06-10T02:00:15;99305.97;;;18.12;71.32
6216;BME280;3141;49.234;9.326;2023-06-10T02:00:57;99301.84;;;18.16;70.99
6216;BME280;3141;49.234;9.326;2023-06-10T02:01:40;99304.13;;;18.13;71.12
6216;BME280;3141;49.234;9.326;2023-06-10T02:02:22;99302.84;;;18.22;70.42
6216;BME280;3141;49.234;9.326;2023-06-10T02:03:04;99304.09;;;18.19;70.35
6216;BME280;3141;49.234;9.326;2023-06-10T02:03:47;99306.97;;;18.18;70.21
6216;BME280;3141;49.234;9.326;2023-06-10T02:04:29;99311.91;;;18.21;69.96
6216;BME280;3141;49.234;9.326;2023-06-10T02:05:11;99309.63;;;18.24;69.65
6216;BME280;3141;49.234;9.326;2023-06-10T02:05:54;99305.94;;;18.25;69.57
6216;BME280;3141;49.234;9.326;2023-06-10T02:06:36;99311.88;;;18.27;69.00
6216;BME280;3141;49.234;9.326;2023-06-10T02:07:19;99308.38;;;18.27;69.14
6216;BME280;3141;49.234;9.326;2023-06-10T02:08:02;99307.56;;;18.26;69.05
6216;BME280;3141;49.234;9.326;2023-06-10T02:08:45;99305.94;;;18.19;68.87
6216;BME280;3141;49.234;9.326;2023-06-10T02:09:27;99309.69;;;18.11;69.15
6216;BME280;3141;49.234;9.326;2023-06-10T02:10:09;99311.78;;;18.03;69.63
6216;BME280;3141;49.234;9.326;2023-06-10T02:10:52;99311.41;;;17.99;69.74
6216;BME280;3141;49.234;9.326;2023-06-10T02:11:34;99312.63;;;17.97;69.89
6216;BME280;3141;49.234;9.326;2023-06-10T02:12:16;99311.44;;;17.93;69.42
6216;BME280;3141;49.234;9.326;2023-06-10T02:12:59;99322.31;;;17.91;69.86
6216;BME280;3141;49.234;9.326;2023-06-10T02:13:41;99314.09;;;17.86;69.82
6216;BME280;3141;49.234;9.326;2023-06-10T02:14:23;99315.94;;;17.92;69.36
6216;BME280;3141;49.234;9.326;2023-06-10T02:15:06;99316.97;;;17.98;69.02
6216;BME280;3141;49.234;9.326;2023-06-10T02:15:48;99318.63;;;17.92;69.26
6216;BME280;3141;49.234;9.326;2023-06-10T02:16:31;99320.25;;;17.93;69.11
6216;BME280;3141;49.234;9.326;2023-06-10T02:17:13;99317.78;;;17.92;69.18
6216;BME280;3141;49.234;9.326;2023-06-10T02:17:56;99315.50;;;17.95;68.94
6216;BME280;3141;49.234;9.326;2023-06-10T02:18:41;99318.19;;;17.95;68.80
6216;BME280;3141;49.234;9.326;2023-06-10T02:19:25;99315.13;;;17.92;69.03
6216;BME280;3141;49.234;9.326;2023-06-10T02:20:09;99318.59;;;17.99;68.29
6216;BME280;3141;49.234;9.326;2023-06-10T02:20:52;99312.84;;;17.95;68.38
6216;BME280;3141;49.234;9.326;2023-06-10T02:21:35;99316.13;;;17.97;68.23
6216;BME280;3141;49.234;9.326;2023-06-10T02:22:20;99316.38;;;17.89;68.66
6216;BME280;3141;49.234;9.326;2023-06-10T02:23:02;99315.38;;;17.84;68.86
6216;BME280;3141;49.234;9.326;2023-06-10T02:23:45;99311.06;;;17.76;69.40
6216;BME280;3141;49.234;9.326;2023-06-10T02:24:27;99313.53;;;17.71;69.65
6216;BME280;3141;49.234;9.326;2023-06-10T02:25:10;99313.34;;;17.66;69.65
6216;BME280;3141;49.234;9.326;2023-06-10T02:25:52;99321.59;;;17.65;69.86
6216;BME280;3141;49.234;9.326;2023-06-10T02:26:35;99315.66;;;17.56;70.04
6216;BME280;3141;49.234;9.326;2023-06-10T02:27:19;99311.13;;;17.50;70.22
6216;BME280;3141;49.234;9.326;2023-06-10T02:28:01;99310.50;;;17.48;70.31
6216;BME280;3141;49.234;9.326;2023-06-10T02:28:45;99316.69;;;17.49;70.57
6216;BME280;3141;49.234;9.326;2023-06-10T02:29:27;99307.19;;;17.59;69.88
6216;BME280;3141;49.234;9.326;2023-06-10T02:30:10;99322.00;;;17.62;69.80
6216;BME280;3141;49.234;9.326;2023-06-10T02:30:53;99321.38;;;17.66;69.57
6216;BME280;3141;49.234;9.326;2023-06-10T02:31:35;99318.28;;;17.69;68.91
6216;BME280;3141;49.234;9.326;2023-06-10T02:32:17;99320.72;;;17.71;68.94
6216;BME280;3141;49.234;9.326;2023-06-10T02:33:00;99317.88;;;17.72;69.02
6216;BME280;3141;49.234;9.326;2023-06-10T02:33:44;99318.69;;;17.73;69.04
6216;BME280;3141;49.234;9.326;2023-06-10T02:34:26;99314.41;;;17.65;69.29
6216;BME280;3141;49.234;9.326;2023-06-10T02:35:09;99320.56;;;17.59;69.80
6216;BME280;3141;49.234;9.326;2023-06-10T02:35:55;99329.00;;;17.56;70.05
6216;BME280;3141;49.234;9.326;2023-06-10T02:36:38;99331.69;;;17.56;70.00
6216;BME280;3141;49.234;9.326;2023-06-10T02:37:20;99324.50;;;17.57;69.99
6216;BME280;3141;49.234;9.326;2023-06-10T02:38:02;99322.44;;;17.52;70.12
6216;BME280;3141;49.234;9.326;2023-06-10T02:43:28;99326.94;;;17.58;69.82
6216;BME280;3141;49.234;9.326;2023-06-10T02:44:10;99326.75;;;17.53;69.93
6216;BME280;3141;49.234;9.326;2023-06-10T02:44:53;99324.88;;;17.60;69.62
6216;BME280;3141;49.234;9.326;2023-06-10T02:45:35;99325.88;;;17.66;68.99
6216;BME280;3141;49.234;9.326;2023-06-10T02:46:18;99330.84;;;17.62;68.99
6216;BME280;3141;49.234;9.326;2023-06-10T02:47:00;99328.78;;;17.58;69.57
6216;BME280;3141;49.234;9.326;2023-06-10T02:47:42;99326.94;;;17.58;69.49
6216;BME280;3141;49.234;9.326;2023-06-10T02:48:24;99331.88;;;17.61;69.07
6216;BME280;3141;49.234;9.326;2023-06-10T02:49:07;99333.09;;;17.65;68.84
6216;BME280;3141;49.234;9.326;2023-06-10T02:49:49;99332.69;;;17.55;69.25
6216;BME280;3141;49.234;9.326;2023-06-10T02:50:31;99331.06;;;17.54;69.39
6216;BME280;3141;49.234;9.326;2023-06-10T02:51:14;99329.41;;;17.60;69.28
6216;BME280;3141;49.234;9.326;2023-06-10T02:51:57;99329.81;;;17.63;68.91
6216;BME280;3141;49.234;9.326;2023-06-10T02:52:39;99325.09;;;17.65;68.70
6216;BME280;3141;49.234;9.326;2023-06-10T02:53:21;99330.44;;;17.65;69.19
6216;BME280;3141;49.234;9.326;2023-06-10T02:54:04;99325.28;;;17.57;69.28
6216;BME280;3141;49.234;9.326;2023-06-10T02:54:47;99328.59;;;17.53;69.65
6216;BME280;3141;49.234;9.326;2023-06-10T02:55:29;99323.03;;;17.54;69.72
6216;BME280;3141;49.234;9.326;2023-06-10T02:56:11;99329.81;;;17.50;69.58
6216;BME280;3141;49.234;9.326;2023-06-10T02:56:54;99337.84;;;17.50;70.02
6216;BME280;3141;49.234;9.326;2023-06-10T02:57:37;99327.34;;;17.55;69.66
6216;BME280;3141;49.234;9.326;2023-06-10T02:58:20;99330.25;;;17.47;69.81
6216;BME280;3141;49.234;9.326;2023-06-10T02:59:03;99330.03;;;17.49;69.58
6216;BME280;3141;49.234;9.326;2023-06-10T02:59:45;99338.69;;;17.51;69.51
6216;BME280;3141;49.234;9.326;2023-06-10T03:00:28;99335.97;;;17.57;69.12
6216;BME280;3141;49.234;9.326;2023-06-10T03:01:12;99334.34;;;17.63;69.09
6216;BME280;3141;49.234;9.326;2023-06-10T03:01:54;99332.28;;;17.58;69.01
6216;BME280;3141;49.234;9.326;2023-06-10T03:02:37;99338.66;;;17.57;68.79
6216;BME280;3141;49.234;9.326;2023-06-10T03:03:20;99334.97;;;17.58;68.60
6216;BME280;3141;49.234;9.326;2023-06-10T03:04:05;99333.53;;;17.56;68.97
6216;BME280;3141;49.234;9.326;2023-06-10T03:04:47;99330.63;;;17.57;68.94
6216;BME280;3141;49.234;9.326;2023-06-10T03:05:30;99332.50;;;17.57;69.11
6216;BME280;3141;49.234;9.326;2023-06-10T03:06:13;99338.66;;;17.57;68.69
6216;BME280;3141;49.234;9.326;2023-06-10T03:06:56;99339.28;;;17.59;68.30
6216;BME280;3141;49.234;9.326;2023-06-10T03:07:38;99333.94;;;17.59;68.21
6216;BME280;3141;49.234;9.326;2023-06-10T03:08:21;99335.97;;;17.57;68.10
6216;BME280;3141;49.234;9.326;2023-06-10T03:09:03;99335.16;;;17.50;68.66
6216;BME280;3141;49.234;9.326;2023-06-10T03:09:55;99333.75;;;17.54;68.54
6216;BME280;3141;49.234;9.326;2023-06-10T03:10:38;99329.44;;;17.53;68.49
6216;BME280;3141;49.234;9.326;2023-06-10T03:11:20;99333.53;;;17.49;68.64
6216;BME280;3141;49.234;9.326;2023-06-10T03:12:03;99331.47;;;17.38;69.87
6216;BME280;3141;49.234;9.326;2023-06-10T03:12:46;99332.06;;;17.40;69.42
6216;BME280;3141;49.234;9.326;2023-06-10T03:13:28;99328.41;;;17.41;69.34
6216;BME280;3141;49.234;9.326;2023-06-10T03:14:10;99326.94;;;17.45;69.04
6216;BME280;3141;49.234;9.326;2023-06-10T03:14:53;99331.88;;;17.48;68.71
6216;BME280;3141;49.234;9.326;2023-06-10T03:15:35;99327.38;;;17.49;68.53
6216;BME280;3141;49.234;9.326;2023-06-10T03:16:18;99327.78;;;17.52;68.68
6216;BME280;3141;49.234;9.326;2023-06-10T03:17:00;99326.53;;;17.48;68.70
6216;BME280;3141;49.234;9.326;2023-06-10T03:17:43;99329.03;;;17.50;68.86
6216;BME280;3141;49.234;9.326;2023-06-10T03:18:26;99325.31;;;17.51;68.93
6216;BME280;3141;49.234;9.326;2023-06-10T03:19:09;99330.44;;;17.52;68.41
6216;BME280;3141;49.234;9.326;2023-06-10T03:19:51;99329.03;;;17.50;68.45
6216;BME280;3141;49.234;9.326;2023-06-10T03:20:33;99332.28;;;17.45;68.91
6216;BME280;3141;49.234;9.326;2023-06-10T03:21:19;99337.22;;;17.35;69.64
6216;BME280;3141;49.234;9.326;2023-06-10T03:22:10;99329.22;;;17.28;69.89
6216;BME280;3141;49.234;9.326;2023-06-10T03:22:52;99333.13;;;17.26;69.97
6216;BME280;3141;49.234;9.326;2023-06-10T03:23:35;99326.97;;;17.25;70.42
6216;BME280;3141;49.234;9.326;2023-06-10T03:24:17;99333.13;;;17.26;70.31
6216;BME280;3141;49.234;9.326;2023-06-10T03:25:00;99344.84;;;17.31;70.22
6216;BME280;3141;49.234;9.326;2023-06-10T03:25:42;99334.97;;;17.39;69.74
6216;BME280;3141;49.234;9.326;2023-06-10T03:26:26;99331.88;;;17.42;69.60
6216;BME280;3141;49.234;9.326;2023-06-10T03:27:10;99345.00;;;17.43;69.29
6216;BME280;3141;49.234;9.326;2023-06-10T03:27:53;99335.38;;;17.42;69.31
6216;BME280;3141;49.234;9.326;2023-06-10T03:28:35;99339.09;;;17.41;69.58
6216;BME280;3141;49.234;9.326;2023-06-10T03:29:18;99338.66;;;17.44;69.39
6216;BME280;3141;49.234;9.326;2023-06-10T03:30:00;99341.34;;;17.44;69.16
6216;BME280;3141;49.234;9.326;2023-06-10T03:30:42;99337.00;;;17.43;69.06
6216;BME280;3141;49.234;9.326;2023-06-10T03:31:25;99341.53;;;17.43;69.23
6216;BME280;3141;49.234;9.326;2023-06-10T03:32:08;99342.16;;;17.38;69.21
6216;BME280;3141;49.234;9.326;2023-06-10T03:32:50;99342.16;;;17.38;69.17
6216;BME280;3141;49.234;9.326;2023-06-10T03:33:33;99343.00;;;17.32;69.63
6216;BME280;3141;49.234;9.326;2023-06-10T03:34:15;99340.53;;;17.30;69.60
6216;BME280;3141;49.234;9.326;2023-06-10T03:34:57;99338.25;;;17.34;69.25
6216;BME280;3141;49.234;9.326;2023-06-10T03:35:40;99348.72;;;17.22;69.59
6216;BME280;3141;49.234;9.326;2023-06-10T03:36:22;99344.22;;;17.16;70.05
6216;BME280;3141;49.234;9.326;2023-06-10T03:37:05;99345.44;;;17.14;70.11
6216;BME280;3141;49.234;9.326;2023-06-10T03:37:47;99338.06;;;17.16;69.94
6216;BME280;3141;49.234;9.326;2023-06-10T03:38:30;99343.59;;;17.14;70.21
6216;BME280;3141;49.234;9.326;2023-06-10T03:39:12;99342.97;;;17.19;70.27
6216;BME280;3141;49.234;9.326;2023-06-10T03:39:54;99336.63;;;17.20;70.14
6216;BME280;3141;49.234;9.326;2023-06-10T03:40:38;99333.13;;;17.19;69.95
6216;BME280;3141;49.234;9.326;2023-06-10T03:41:20;99339.72;;;17.17;70.11
6216;BME280;3141;49.234;9.326;2023-06-10T03:42:03;99337.03;;;17.10;70.30
6216;BME280;3141;49.234;9.326;2023-06-10T03:42:46;99344.22;;;17.10;70.24
6216;BME280;3141;49.234;9.326;2023-06-10T03:43:28;99340.31;;;17.06;70.75
6216;BME280;3141;49.234;9.326;2023-06-10T03:44:10;99341.94;;;17.07;70.72
6216;BME280;3141;49.234;9.326;2023-06-10T03:44:53;99337.22;;;17.09;70.74
6216;BME280;3141;49.234;9.326;2023-06-10T03:45:35;99344.03;;;17.05;71.09
6216;BME280;3141;49.234;9.326;2023-06-10T03:46:18;99349.56;;;17.10;70.98
6216;BME280;3141;49.234;9.326;2023-06-10T03:47:01;99348.13;;;17.14;70.54
6216;BME280;3141;49.234;9.326;2023-06-10T03:47:43;99349.16;;;17.13;70.71
6216;BME280;3141;49.234;9.326;2023-06-10T03:48:27;99341.78;;;17.15;70.76
6216;BME280;3141;49.234;9.326;2023-06-10T03:49:09;99347.09;;;17.15;70.52
6216;BME280;3141;49.234;9.326;2023-06-10T03:49:52;99349.97;;;17.20;70.68
6216;BME280;3141;49.234;9.326;2023-06-10T03:50:35;99347.50;;;17.25;70.05
6216;BME280;3141;49.234;9.326;2023-06-10T03:51:18;99353.25;;;17.35;69.74
6216;BME280;3141;49.234;9.326;2023-06-10T03:52:00;99346.69;;;17.38;69.48
6216;BME280;3141;49.234;9.326;2023-06-10T03:52:43;99354.09;;;17.29;69.73
6216;BME280;3141;49.234;9.326;2023-06-10T03:53:26;99354.09;;;17.29;69.83
6216;BME280;3141;49.234;9.326;2023-06-10T03:54:08;99346.66;;;17.31;69.62
6216;BME280;3141;49.234;9.326;2023-06-10T03:54:50;99347.09;;;17.28;70.27
6216;BME280;3141;49.234;9.326;2023-06-10T03:55:33;99349.13;;;17.32;69.69
6216;BME280;3141;49.234;9.326;2023-06-10T03:56:15;99355.53;;;17.31;69.92
6216;BME280;3141;49.234;9.326;2023-06-10T03:56:57;99360.66;;;17.33;69.98
6216;BME280;3141;49.234;9.326;2023-06-10T03:57:40;99360.03;;;17.31;70.24
6216;BME280;3141;49.234;9.326;2023-06-10T03:58:22;99356.97;;;17.34;70.20
6216;BME280;3141;49.234;9.326;2023-06-10T03:59:04;99357.78;;;17.34;70.41
6216;BME280;3141;49.234;9.326;2023-06-10T03:59:47;99356.13;;;17.40;70.05
6216;BME280;3141;49.234;9.326;2023-06-10T04:00:30;99358.19;;;17.45;70.29
6216;BME280;3141;49.234;9.326;2023-06-10T04:01:12;99357.16;;;17.46;69.78
6216;BME280;3141;49.234;9.326;2023-06-10T04:02:00;99356.97;;;17.47;69.81
6216;BME280;3141;49.234;9.326;2023-06-10T04:02:43;99363.13;;;17.54;69.29
6216;BME280;3141;49.234;9.326;2023-06-10T04:03:29;99361.28;;;17.61;68.95
6216;BME280;3141;49.234;9.326;2023-06-10T04:04:14;99358.78;;;17.66;68.46
6216;BME280;3141;49.234;9.326;2023-06-10T04:04:58;99360.25;;;17.56;68.98